< Cyclone 201614 2017 Season Cyclone 201707 >
Cyclone 201706 (noname)
General InformationTrack Information on Google MapsList of All Images || ResourceGoogle EarthGE AnimationAtom FeedGeoJSON
Detalied Best Track (Time Zone = UTC)
Year Month Day Hour Lat. Long. Pressure (hPa) Wind (kt) Class Image Chart
2016 12 18 06 -10.4 129.5 1004 15 2 Image --
2016 12 18 12 -10.9 129.0 1006 15 2 Image --
2016 12 18 18 -11.3 129.3 1004 15 2 Image --
2016 12 18 21 -11.5 129.4 1003 15 2 Image --
2016 12 19 00 -11.5 129.3 1003 15 2 Image --
2016 12 19 03 -11.7 129.3 1002 15 2 Image --
2016 12 19 06 -11.7 129.8 1002 15 2 Image --
2016 12 19 09 -11.7 129.9 1002 15 2 Image --
2016 12 19 12 -11.7 129.7 1003 15 2 Image --
2016 12 19 15 -11.8 129.7 1002 15 2 Image --
2016 12 19 18 -12.0 129.9 1000 15 2 Image --
2016 12 19 21 -12.1 129.8 1000 15 2 Image --
2016 12 20 00 -12.3 129.3 1000 20 2 Image --
2016 12 20 03 -12.5 129.0 998 20 2 Image --
2016 12 20 06 -12.9 129.0 997 20 2 Image --
2016 12 20 09 -13.1 128.9 996 20 2 Image --
2016 12 20 12 -13.7 128.7 997 20 2 Image --
2016 12 20 15 -14.2 128.6 997 25 2 Image --
2016 12 20 18 -14.6 128.5 995 30 2 Image --
2016 12 20 21 -15.1 128.4 996 30 2 Image --
2016 12 21 00 -15.4 128.4 997 30 2 Image --
2016 12 21 03 -15.5 128.1 997 30 2 Image --
2016 12 21 06 -15.7 127.9 996 30 2 Image --
2016 12 21 12 -16.5 127.6 996 30 2 Image --
2016 12 21 18 -17.6 126.7 997 30 2 Image --
2016 12 22 00 -18.1 126.0 996 30 2 Image --
2016 12 22 06 -18.4 125.0 994 30 2 Image --
2016 12 22 12 -19.4 124.0 996 30 2 Image --
2016 12 22 18 -19.7 123.7 996 30 2 Image --
2016 12 23 00 -20.4 124.0 995 30 2 Image --
< Cyclone 201614 2017 Season Cyclone 201707 >

Help